Time;durP1;ratioP1;P1;durP2;ratioP2;P2;SDS_P1;SDS_P2;PMS_P1;PMS_P2;Temp;Humidity;BMP_temperature;BMP_pressure;BME280_temperature;BME280_humidity;BME280_pressure;Samples;Min_cycle;Max_cycle;Signal;HPM_P1;HPM_P2
2022/07/20 03:24:55;;;;;;;7.80;6.33;;;14.90;99.90;;;;;;5108705;27;20588;-66
2022/07/20 03:27:22;;;;;;;7.07;6.03;;;16.00;99.90;;;;;;5109372;28;20299;-65
2022/07/20 03:29:49;;;;;;;9.70;5.30;;;16.00;99.90;;;;;;5100967;28;20289;-67
2022/07/20 03:32:15;;;;;;;6.87;5.60;;;16.20;99.90;;;;;;5086395;28;20575;-66
2022/07/20 03:34:42;;;;;;;6.13;4.87;;;16.30;99.90;;;;;;5098043;28;20203;-65
2022/07/20 03:37:09;;;;;;;6.43;4.90;;;16.40;99.90;;;;;;5098659;28;20204;-66
2022/07/20 03:39:36;;;;;;;8.03;5.30;;;16.50;99.90;;;;;;5097023;28;20277;-67
2022/07/20 03:42:05;;;;;;;8.93;5.00;;;16.50;99.90;;;;;;5096649;28;20261;-66
2022/07/20 03:44:32;;;;;;;6.83;5.03;;;16.60;99.90;;;;;;5069122;28;20633;-66
2022/07/20 03:46:58;;;;;;;6.77;4.80;;;16.70;99.90;;;;;;5092487;28;20577;-68
2022/07/20 03:49:25;;;;;;;6.17;4.70;;;16.70;99.90;;;;;;5086861;28;20581;-65
2022/07/20 03:51:52;;;;;;;6.20;4.70;;;16.80;99.90;;;;;;5103293;28;20747;-64
2022/07/20 03:54:19;;;;;;;5.67;4.47;;;16.90;99.90;;;;;;5108368;28;20607;-66
2022/07/20 03:56:46;;;;;;;8.50;4.87;;;17.00;99.90;;;;;;5108450;28;20212;-66
2022/07/20 03:59:14;;;;;;;9.80;7.03;;;17.10;99.90;;;;;;5097070;28;20202;-65
2022/07/20 04:01:42;;;;;;;7.10;5.30;;;17.10;99.90;;;;;;5084516;28;20272;-66
2022/07/20 04:04:09;;;;;;;10.40;7.23;;;17.20;99.90;;;;;;5088259;28;20658;-65
2022/07/20 04:06:37;;;;;;;6.43;5.17;;;17.20;99.90;;;;;;5071739;28;20707;-63
2022/07/20 04:09:04;;;;;;;5.87;4.57;;;17.20;99.90;;;;;;5068316;28;20749;-66
2022/07/20 04:11:31;;;;;;;7.13;4.80;;;17.30;99.90;;;;;;5067683;28;20298;-65
2022/07/20 04:13:58;;;;;;;8.00;5.23;;;17.40;99.90;;;;;;5067970;28;20286;-64
2022/07/20 04:16:27;;;;;;;6.10;4.37;;;17.40;99.90;;;;;;5080699;28;20206;-64
2022/07/20 04:18:54;;;;;;;6.00;3.97;;;17.50;99.90;;;;;;5088230;28;20204;-66
2022/07/20 04:21:20;;;;;;;4.80;3.97;;;17.60;99.90;;;;;;5087792;28;20208;-66
2022/07/20 04:23:47;;;;;;;6.10;4.63;;;17.70;99.90;;;;;;5085768;28;20730;-64
2022/07/20 04:26:14;;;;;;;7.30;4.37;;;17.70;99.90;;;;;;5073118;28;20296;-65
2022/07/20 04:28:41;;;;;;;5.70;4.33;;;17.80;99.90;;;;;;5074546;28;20211;-65
2022/07/20 04:31:08;;;;;;;6.57;4.40;;;17.90;99.90;;;;;;5074487;28;20205;-65
2022/07/20 04:33:37;;;;;;;6.37;3.67;;;17.90;99.90;;;;;;5070363;28;20292;-64
2022/07/20 04:36:04;;;;;;;5.03;3.80;;;18.00;99.90;;;;;;5054683;28;20267;-65
2022/07/20 04:38:31;;;;;;;4.83;3.80;;;18.00;99.90;;;;;;5054348;28;20205;-64
2022/07/20 04:40:58;;;;;;;6.43;4.40;;;18.10;99.90;;;;;;5054628;28;20244;-64
2022/07/20 04:43:25;;;;;;;6.07;4.30;;;18.20;99.90;;;;;;5054459;28;20309;-64
2022/07/20 04:45:52;;;;;;;8.80;4.43;;;18.30;99.90;;;;;;5054148;28;20204;-65
2022/07/20 04:48:20;;;;;;;5.77;4.30;;;18.30;99.90;;;;;;5053802;28;20206;-65
2022/07/20 04:50:48;;;;;;;4.50;3.80;;;18.30;99.90;;;;;;5054119;28;20261;-64
2022/07/20 04:53:15;;;;;;;5.33;4.40;;;18.40;99.90;;;;;;5058418;28;20229;-65
2022/07/20 04:55:42;;;;;;;6.67;5.17;;;18.40;99.90;;;;;;5074383;28;20203;-64
2022/07/20 04:58:09;;;;;;;6.17;4.27;;;18.50;99.90;;;;;;5073355;28;20275;-65
2022/07/20 05:00:36;;;;;;;4.33;3.60;;;18.60;99.90;;;;;;5073986;28;20285;-65
2022/07/20 05:03:03;;;;;;;5.87;3.80;;;18.70;99.90;;;;;;5072622;28;20221;-65
2022/07/20 05:05:29;;;;;;;4.80;4.00;;;18.70;99.90;;;;;;5073900;28;20239;-64
2022/07/20 05:07:58;;;;;;;5.63;4.60;;;18.80;99.90;;;;;;5073819;28;20228;-64
2022/07/20 05:10:25;;;;;;;5.87;4.80;;;18.90;99.90;;;;;;5073305;28;20220;-67
2022/07/20 05:12:52;;;;;;;4.73;4.07;;;19.00;99.90;;;;;;5072507;28;20666;-65
2022/07/20 05:15:23;;;;;;;6.93;4.57;;;19.10;99.90;;;;;;5054667;28;20650;-66
2022/07/20 05:17:50;;;;;;;4.77;4.03;;;19.10;99.90;;;;;;5052908;28;20237;-64
2022/07/20 05:20:17;;;;;;;4.80;3.90;;;19.20;99.90;;;;;;5053725;28;20728;-65
2022/07/20 05:22:43;;;;;;;4.30;3.50;;;19.40;99.90;;;;;;5053431;28;20698;-63
2022/07/20 05:25:12;;;;;;;6.57;3.73;;;19.40;99.90;;;;;;5053233;28;20202;-64
2022/07/20 05:27:39;;;;;;;5.43;3.70;;;19.50;99.90;;;;;;5053412;28;20209;-65
2022/07/20 05:30:07;;;;;;;5.67;3.50;;;19.60;99.90;;;;;;5053146;28;20263;-64
2022/07/20 05:32:34;;;;;;;6.53;3.93;;;19.60;99.90;;;;;;5061853;28;20270;-65
2022/07/20 05:35:01;;;;;;;7.13;3.80;;;19.70;99.90;;;;;;5072656;28;20197;-64
2022/07/20 05:37:28;;;;;;;4.53;3.37;;;19.80;99.90;;;;;;5067515;28;20217;-65
2022/07/20 05:39:55;;;;;;;7.57;3.97;;;19.80;99.90;;;;;;5052948;28;20213;-64
2022/07/20 05:42:23;;;;;;;4.30;3.47;;;19.90;99.90;;;;;;5052922;28;20622;-65
2022/07/20 05:44:50;;;;;;;5.57;3.50;;;20.00;99.90;;;;;;5053241;28;20227;-66
2022/07/20 05:47:17;;;;;;;4.73;3.17;;;20.10;99.90;;;;;;5053834;28;20237;-64
2022/07/20 05:49:47;;;;;;;5.60;3.70;;;20.20;99.90;;;;;;5052711;28;20304;-64
2022/07/20 05:52:14;;;;;;;4.80;3.53;;;20.30;99.90;;;;;;5052996;28;20659;-66
2022/07/20 05:54:41;;;;;;;8.60;3.77;;;20.40;99.90;;;;;;5062749;28;20291;-63
2022/07/20 05:57:07;;;;;;;5.00;3.40;;;20.40;99.90;;;;;;5072809;28;20311;-65
2022/07/20 05:59:36;;;;;;;4.87;3.03;;;20.50;99.90;;;;;;5072991;28;20298;-64
2022/07/20 06:02:03;;;;;;;4.60;3.60;;;20.60;99.90;;;;;;5072748;28;20205;-65
2022/07/20 06:04:30;;;;;;;5.23;3.77;;;20.70;99.90;;;;;;5071059;28;20220;-64
2022/07/20 06:06:57;;;;;;;6.27;3.40;;;20.70;99.90;;;;;;5072757;28;20221;-64
2022/07/20 06:09:24;;;;;;;5.00;3.30;;;20.80;99.90;;;;;;5072543;28;20329;-65
2022/07/20 06:11:51;;;;;;;5.83;3.70;;;20.90;99.90;;;;;;5072703;28;20200;-66
2022/07/20 06:14:18;;;;;;;4.47;3.50;;;20.90;99.90;;;;;;5057512;28;20215;-65
2022/07/20 06:16:46;;;;;;;4.03;3.20;;;21.00;99.90;;;;;;5052702;28;20637;-64
2022/07/20 06:19:13;;;;;;;4.43;3.60;;;21.10;99.90;;;;;;5056570;28;20215;-65
2022/07/20 06:21:40;;;;;;;4.83;3.20;;;21.10;99.90;;;;;;5061966;28;20248;-65
2022/07/20 06:24:07;;;;;;;5.60;3.47;;;21.20;99.90;;;;;;5051899;28;20241;-65
2022/07/20 06:26:34;;;;;;;4.37;3.40;;;21.30;99.90;;;;;;5052065;28;20209;-64
2022/07/20 06:29:01;;;;;;;6.43;3.70;;;21.40;99.90;;;;;;5056099;28;20297;-66
2022/07/20 06:31:28;;;;;;;4.77;3.53;;;21.50;99.90;;;;;;5068331;28;20213;-65
2022/07/20 06:33:57;;;;;;;6.47;3.83;;;21.60;99.90;;;;;;5052067;28;20237;-67
2022/07/20 06:36:24;;;;;;;5.70;3.60;;;21.60;99.90;;;;;;5052507;28;20293;-69
2022/07/20 06:38:50;;;;;;;8.13;3.70;;;21.70;99.90;;;;;;5058559;28;20233;-65
2022/07/20 06:41:17;;;;;;;5.90;3.73;;;21.80;99.90;;;;;;5070705;28;20229;-65
2022/07/20 06:43:44;;;;;;;6.27;3.80;;;21.90;99.90;;;;;;5060157;28;20279;-68
2022/07/20 06:46:11;;;;;;;11.47;5.23;;;21.90;99.90;;;;;;5070287;28;20251;-65
2022/07/20 06:48:40;;;;;;;4.30;3.27;;;22.00;99.90;;;;;;5071825;28;20309;-67
2022/07/20 06:51:08;;;;;;;4.30;3.20;;;22.10;99.90;;;;;;5066218;28;20203;-66
2022/07/20 06:53:35;;;;;;;6.17;3.90;;;22.20;99.90;;;;;;5063557;28;20288;-65
2022/07/20 06:56:02;;;;;;;5.10;3.30;;;22.30;99.90;;;;;;5071860;28;20625;-65
2022/07/20 06:58:29;;;;;;;4.93;3.50;;;22.40;99.90;;;;;;5072048;28;20275;-66
2022/07/20 07:00:56;;;;;;;5.33;3.63;;;22.40;99.90;;;;;;5072983;28;20201;-67
2022/07/20 07:03:23;;;;;;;6.03;3.87;;;22.50;99.90;;;;;;5072653;28;20237;-68
2022/07/20 07:05:49;;;;;;;5.50;3.77;;;22.50;99.90;;;;;;5071874;28;20218;-67
2022/07/20 07:08:18;;;;;;;4.97;3.50;;;22.50;99.90;;;;;;5072100;28;20210;-68
2022/07/20 07:10:45;;;;;;;6.00;3.50;;;22.60;99.90;;;;;;5065316;28;20257;-67
2022/07/20 07:13:11;;;;;;;5.50;3.73;;;22.70;99.90;;;;;;5064339;28;20210;-65
2022/07/20 07:15:38;;;;;;;5.47;4.20;;;22.80;99.90;;;;;;5067693;28;20252;-69
2022/07/20 07:18:05;;;;;;;10.60;4.67;;;22.90;99.90;;;;;;5061004;28;20198;-67
2022/07/20 07:20:33;;;;;;;5.43;4.13;;;22.90;99.90;;;;;;5071631;28;20310;-69
2022/07/20 07:23:00;;;;;;;5.53;3.87;;;22.90;99.90;;;;;;5070682;28;20239;-67
2022/07/20 07:25:29;;;;;;;6.07;3.87;;;23.00;99.90;;;;;;5069106;28;20273;-69
2022/07/20 07:27:56;;;;;;;7.47;3.77;;;23.10;99.90;;;;;;5062857;28;20262;-67
2022/07/20 09:06:05;;;;;;;5.15;3.55;;;24.00;99.90;;;;;;5130133;27;20543;-68
2022/07/20 09:08:32;;;;;;;5.40;3.80;;;25.10;99.90;;;;;;5129930;27;20189;-69
2022/07/20 09:11:02;;;;;;;6.30;3.58;;;25.20;99.90;;;;;;5130006;27;20629;-67
2022/07/20 09:13:30;;;;;;;6.35;3.90;;;25.30;99.90;;;;;;5129697;27;20202;-68
2022/07/20 09:15:57;;;;;;;4.80;3.65;;;25.30;99.90;;;;;;5129410;27;20296;-67
2022/07/20 09:18:25;;;;;;;5.97;3.70;;;25.30;99.90;;;;;;5130120;27;20203;-68
2022/07/20 09:20:54;;;;;;;7.25;4.05;;;25.20;99.90;;;;;;5129766;27;20201;-69
2022/07/20 09:23:25;;;;;;;7.35;4.00;;;25.20;99.90;;;;;;5129570;27;20225;-70
2022/07/20 09:25:58;;;;;;;5.28;3.97;;;25.30;99.90;;;;;;5129852;27;20250;-69
2022/07/20 09:28:36;;;;;;;6.28;3.70;;;25.40;99.90;;;;;;5129794;27;20202;-69
2022/07/20 09:31:09;;;;;;;6.38;4.22;;;25.40;99.90;;;;;;5129452;27;20230;-69
2022/07/20 09:33:35;;;;;;;5.38;3.45;;;25.50;99.90;;;;;;5127857;27;20708;-66
2022/07/20 09:36:05;;;;;;;4.88;3.85;;;25.50;99.90;;;;;;5128477;27;20238;-68
2022/07/20 09:38:35;;;;;;;5.70;4.47;;;25.60;99.90;;;;;;5129389;27;20290;-66
2022/07/20 09:41:04;;;;;;;7.72;3.80;;;25.70;99.90;;;;;;5126977;27;20187;-66
2022/07/20 09:43:32;;;;;;;5.00;3.83;;;25.80;99.90;;;;;;5106212;28;20285;-66
2022/07/20 09:46:11;;;;;;;7.03;4.10;;;25.80;99.90;;;;;;5108814;28;20200;-65
2022/07/20 09:48:45;;;;;;;4.93;3.55;;;25.90;99.90;;;;;;5111377;28;20221;-66
2022/07/20 09:51:21;;;;;;;8.50;3.75;;;25.90;99.90;;;;;;5130086;27;20274;-65
2022/07/20 09:53:50;;;;;;;6.20;3.65;;;26.00;99.90;;;;;;5128192;27;20195;-66
2022/07/20 09:56:19;;;;;;;5.22;3.55;;;26.10;99.90;;;;;;5128906;27;20291;-67
2022/07/20 09:58:49;;;;;;;7.68;4.10;;;26.00;99.90;;;;;;5126174;27;20286;-65
2022/07/20 10:01:19;;;;;;;5.07;3.63;;;26.00;99.90;;;;;;5118436;28;20747;-66
2022/07/20 10:03:48;;;;;;;4.32;3.42;;;26.00;99.90;;;;;;5128384;27;20319;-70
2022/07/20 10:06:16;;;;;;;5.15;3.47;;;26.00;99.90;;;;;;5104113;27;20205;-69
2022/07/20 10:08:43;;;;;;;5.00;3.65;;;26.10;99.90;;;;;;5114984;28;20622;-69
2022/07/20 10:11:11;;;;;;;7.05;3.58;;;26.00;99.90;;;;;;5109034;28;20217;-70
2022/07/20 10:13:40;;;;;;;4.90;4.00;;;26.10;99.90;;;;;;5114879;28;20219;-71
2022/07/20 10:16:15;;;;;;;9.05;3.53;;;26.20;99.90;;;;;;5101542;27;20215;-71
2022/07/20 10:18:44;;;;;;;5.32;3.70;;;26.30;99.90;;;;;;5094520;28;20215;-71
2022/07/20 10:21:39;;;;;;;8.85;3.75;;;26.40;99.90;;;;;;5106844;28;20295;-65
2022/07/20 10:24:17;;;;;;;9.63;3.22;;;26.40;99.90;;;;;;5110615;28;20659;-65
2022/07/20 10:26:47;;;;;;;4.25;3.70;;;26.40;99.90;;;;;;5102768;28;20235;-64
2022/07/20 10:29:26;;;;;;;7.47;3.85;;;26.50;99.90;;;;;;5107284;28;20301;-66
2022/07/20 10:31:54;;;;;;;4.95;3.58;;;26.60;99.90;;;;;;5097918;28;20280;-67
2022/07/20 10:34:33;;;;;;;5.25;3.30;;;26.60;99.90;;;;;;5095209;28;20247;-63
2022/07/20 10:37:25;;;;;;;5.07;3.60;;;26.60;99.90;;;;;;5102698;28;20279;-67
2022/07/20 10:39:54;;;;;;;7.28;4.05;;;26.70;99.90;;;;;;5101593;28;20226;-63
2022/07/20 10:42:24;;;;;;;5.78;3.75;;;26.80;99.90;;;;;;5107352;28;20727;-67
2022/07/20 10:44:51;;;;;;;5.28;3.20;;;26.80;99.90;;;;;;5112547;28;20213;-68
2022/07/20 10:47:39;;;;;;;5.47;3.83;;;26.90;99.90;;;;;;5111633;28;20584;-68
2022/07/20 10:50:07;;;;;;;5.93;4.32;;;27.00;99.90;;;;;;5093947;28;20289;-69
2022/07/20 10:52:35;;;;;;;5.57;3.63;;;27.10;99.90;;;;;;5094232;28;20317;-69
2022/07/20 10:55:04;;;;;;;11.77;4.47;;;27.20;99.90;;;;;;5093719;28;20272;-66
2022/07/20 10:57:33;;;;;;;5.63;3.78;;;27.10;99.90;;;;;;5099694;28;20313;-67
2022/07/20 11:00:11;;;;;;;7.53;3.75;;;27.20;99.90;;;;;;5111299;28;20198;-64
2022/07/20 11:02:39;;;;;;;6.50;3.70;;;27.20;99.90;;;;;;5108861;27;20248;-64
2022/07/20 11:05:18;;;;;;;9.35;3.90;;;27.20;99.90;;;;;;5102858;28;20316;-68
2022/07/20 11:07:45;;;;;;;5.45;3.60;;;27.30;99.90;;;;;;5107545;28;20247;-64
2022/07/20 11:10:21;;;;;;;4.15;3.30;;;27.40;99.90;;;;;;5111008;28;20219;-66
2022/07/20 11:12:56;;;;;;;6.00;3.70;;;27.30;99.90;;;;;;5113076;28;20290;-64
2022/07/20 11:15:23;;;;;;;8.20;3.80;;;27.30;99.90;;;;;;5113669;28;20189;-65
2022/07/20 11:17:54;;;;;;;7.10;3.70;;;27.30;99.90;;;;;;5112705;28;20201;-67
2022/07/20 11:20:21;;;;;;;4.55;3.22;;;27.20;99.90;;;;;;5113539;28;20198;-64
2022/07/20 11:22:48;;;;;;;5.88;3.63;;;27.20;99.90;;;;;;5108148;28;20223;-64
2022/07/20 11:25:15;;;;;;;8.73;4.38;;;27.10;99.90;;;;;;5103768;28;20757;-66
2022/07/20 11:27:42;;;;;;;7.03;4.00;;;27.20;99.90;;;;;;5113623;28;20301;-70
2022/07/20 11:30:12;;;;;;;7.18;4.00;;;27.20;99.90;;;;;;5113564;28;20251;-65
2022/07/20 11:32:53;;;;;;;5.50;3.75;;;27.30;99.90;;;;;;5109824;28;20293;-64
2022/07/20 11:35:20;;;;;;;6.47;3.92;;;27.30;99.90;;;;;;5100408;28;20191;-64
2022/07/20 11:37:52;;;;;;;4.35;3.47;;;27.40;99.90;;;;;;5095778;28;20202;-65
2022/07/20 11:40:19;;;;;;;7.22;3.72;;;27.40;99.90;;;;;;5101256;28;20337;-64
2022/07/20 11:43:08;;;;;;;9.45;4.10;;;27.50;99.90;;;;;;5106167;28;20298;-65
2022/07/20 11:45:37;;;;;;;6.68;4.10;;;27.50;99.90;;;;;;5092077;28;20321;-66
2022/07/20 11:48:17;;;;;;;5.72;3.80;;;27.50;99.90;;;;;;5097373;28;20202;-65
2022/07/20 11:50:44;;;;;;;7.65;3.92;;;27.50;99.90;;;;;;5103747;28;20195;-65
2022/07/20 11:53:27;;;;;;;4.93;3.72;;;27.50;99.90;;;;;;5092885;28;20309;-65
2022/07/20 11:55:54;;;;;;;6.53;3.90;;;27.50;99.90;;;;;;5102400;28;20199;-67
2022/07/20 11:58:30;;;;;;;9.35;4.20;;;27.60;99.90;;;;;;5092289;28;20215;-66
2022/07/20 12:00:59;;;;;;;7.80;4.18;;;27.60;99.90;;;;;;5100275;28;20286;-65
2022/07/20 12:03:30;;;;;;;8.23;4.28;;;27.70;99.90;;;;;;5092476;28;20288;-65
2022/07/20 12:06:01;;;;;;;5.75;3.53;;;27.80;99.90;;;;;;5094445;28;20275;-66
2022/07/20 12:08:28;;;;;;;5.57;3.80;;;27.80;99.90;;;;;;5091917;28;20274;-65
2022/07/20 12:10:56;;;;;;;5.00;3.78;;;27.90;99.90;;;;;;5092499;28;20609;-64
2022/07/20 12:13:24;;;;;;;7.75;4.10;;;27.90;99.90;;;;;;5091664;28;20291;-64
2022/07/20 12:16:02;;;;;;;6.32;3.60;;;28.00;99.90;;;;;;5091906;28;20249;-64
2022/07/20 12:18:44;;;;;;;8.63;4.43;;;28.10;99.90;;;;;;5091897;28;20282;-63
2022/07/20 12:21:14;;;;;;;5.97;4.40;;;28.10;99.90;;;;;;5097636;28;20278;-64
2022/07/20 12:23:42;;;;;;;7.43;4.10;;;28.20;99.90;;;;;;5112776;28;20202;-64
2022/07/20 12:26:30;;;;;;;5.93;3.63;;;28.30;99.90;;;;;;5100015;28;20247;-66
2022/07/20 12:28:59;;;;;;;6.05;3.80;;;28.20;99.90;;;;;;5091837;28;20207;-65
2022/07/20 12:31:28;;;;;;;8.05;3.90;;;28.20;99.90;;;;;;5092119;28;20578;-64
2022/07/20 12:34:07;;;;;;;6.00;4.07;;;28.20;99.90;;;;;;5092649;28;20721;-65
2022/07/20 12:36:40;;;;;;;4.53;3.58;;;28.10;99.90;;;;;;5100466;28;20190;-65
2022/07/20 12:39:10;;;;;;;5.55;4.35;;;28.10;99.90;;;;;;5095845;28;20714;-66
2022/07/20 12:41:37;;;;;;;10.00;4.25;;;28.00;99.90;;;;;;5103440;28;20205;-65
2022/07/20 12:44:26;;;;;;;7.22;3.88;;;28.00;99.90;;;;;;5112300;28;20198;-65
2022/07/20 12:46:56;;;;;;;6.25;3.80;;;28.00;99.90;;;;;;5111046;28;20238;-65
2022/07/20 12:49:24;;;;;;;7.40;4.47;;;28.00;99.90;;;;;;5112047;28;20211;-64
2022/07/20 12:51:51;;;;;;;5.93;4.15;;;28.00;99.90;;;;;;5098938;28;20294;-66
2022/07/20 12:54:19;;;;;;;5.80;3.85;;;27.90;99.90;;;;;;5112116;28;20302;-65
2022/07/20 12:56:46;;;;;;;6.32;3.78;;;27.90;99.90;;;;;;5112211;28;20213;-65
2022/07/20 12:59:14;;;;;;;6.03;3.80;;;27.80;99.90;;;;;;5112299;28;20670;-65
2022/07/20 13:01:48;;;;;;;7.65;4.15;;;27.60;99.90;;;;;;5110406;28;20213;-64
2022/07/20 13:04:17;;;;;;;5.13;3.97;;;27.60;99.90;;;;;;5095878;28;20237;-64
2022/07/20 13:06:46;;;;;;;4.57;3.78;;;27.60;99.90;;;;;;5101593;28;20260;-66
2022/07/20 13:09:14;;;;;;;6.88;4.20;;;27.70;99.90;;;;;;5107947;28;20735;-69
2022/07/20 13:11:42;;;;;;;10.38;3.90;;;27.70;99.90;;;;;;5110856;28;20209;-65
2022/07/20 13:14:09;;;;;;;6.28;3.83;;;27.80;99.90;;;;;;5112305;28;20259;-69
2022/07/20 13:16:36;;;;;;;7.13;3.95;;;27.80;99.90;;;;;;5111926;28;20645;-65
2022/07/20 13:19:03;;;;;;;4.88;3.63;;;27.80;99.90;;;;;;5111719;28;20230;-64
2022/07/20 13:21:32;;;;;;;6.05;3.45;;;27.90;99.90;;;;;;5111707;28;20740;-65
2022/07/20 13:23:59;;;;;;;8.57;4.13;;;28.00;99.90;;;;;;5095424;28;20299;-66
2022/07/20 13:26:26;;;;;;;6.70;3.90;;;28.00;99.90;;;;;;5100678;28;20635;-65
2022/07/20 13:28:53;;;;;;;9.68;5.32;;;27.90;99.90;;;;;;5098909;28;20298;-65
2022/07/20 13:31:20;;;;;;;6.38;3.95;;;27.80;99.90;;;;;;5111983;28;20252;-72
2022/07/20 13:33:47;;;;;;;5.93;3.67;;;27.80;99.90;;;;;;5105033;28;20291;-73
2022/07/20 13:36:14;;;;;;;8.35;3.60;;;27.70;99.90;;;;;;5111183;28;20197;-71
2022/07/20 13:38:43;;;;;;;5.78;4.13;;;27.70;99.90;;;;;;5099517;28;20203;-73
2022/07/20 13:41:09;;;;;;;5.47;3.38;;;27.80;99.90;;;;;;5099125;28;20774;-72
2022/07/20 13:43:36;;;;;;;8.63;3.63;;;27.80;99.90;;;;;;5116232;28;20593;-71
2022/07/20 13:46:03;;;;;;;11.70;3.22;;;27.90;99.90;;;;;;5115191;28;20245;-70
2022/07/20 13:48:30;;;;;;;8.32;3.47;;;28.00;99.90;;;;;;5104279;28;20610;-71
2022/07/20 13:50:57;;;;;;;5.90;3.85;;;28.10;99.90;;;;;;5102487;28;20740;-71
2022/07/20 13:53:25;;;;;;;6.05;3.47;;;28.10;99.90;;;;;;5103356;27;20234;-71
2022/07/20 13:55:53;;;;;;;8.35;3.70;;;28.20;99.90;;;;;;5115280;27;20206;-71
2022/07/20 13:58:21;;;;;;;7.20;3.40;;;28.30;99.90;;;;;;5112036;28;20218;-69
2022/07/20 14:00:49;;;;;;;6.65;3.45;;;28.20;99.90;;;;;;5108908;28;20201;-69
2022/07/20 14:03:17;;;;;;;6.95;3.25;;;28.10;99.90;;;;;;5116018;28;20209;-70
2022/07/20 14:05:44;;;;;;;7.30;3.33;;;28.10;99.90;;;;;;5116796;28;20241;-75
2022/07/20 14:08:12;;;;;;;5.53;3.55;;;28.00;99.90;;;;;;5110397;27;20293;-74
2022/07/20 14:10:39;;;;;;;6.22;3.72;;;28.00;99.90;;;;;;5108648;28;20200;-70
2022/07/20 14:13:07;;;;;;;6.70;4.20;;;27.90;99.90;;;;;;5116812;28;20227;-75
2022/07/20 14:15:34;;;;;;;4.78;3.63;;;27.60;99.90;;;;;;5105331;28;20232;-70
2022/07/20 14:18:01;;;;;;;5.90;4.00;;;27.20;99.90;;;;;;5117175;28;20327;-73
2022/07/20 14:20:28;;;;;;;5.25;4.13;;;26.70;99.90;;;;;;5114066;28;20207;-70
2022/07/20 14:22:55;;;;;;;6.25;4.40;;;26.30;99.90;;;;;;5115183;28;20280;-70
2022/07/20 14:25:22;;;;;;;6.85;4.53;;;26.10;99.90;;;;;;5111749;28;20265;-74
2022/07/20 14:27:49;;;;;;;8.07;4.38;;;25.80;99.90;;;;;;5104691;28;20224;-73
2022/07/20 14:30:17;;;;;;;5.65;4.00;;;25.30;99.90;;;;;;5116395;28;20557;-70
2022/07/20 14:32:44;;;;;;;8.80;4.70;;;24.50;99.90;;;;;;5108412;28;20211;-70
2022/07/20 14:35:11;;;;;;;6.33;3.63;;;24.10;99.90;;;;;;5098178;28;20195;-71
2022/07/20 14:37:38;;;;;;;5.40;4.20;;;23.80;99.90;;;;;;5112146;28;20201;-69
2022/07/20 14:40:07;;;;;;;4.60;3.60;;;23.70;99.90;;;;;;5095607;28;20306;-69
2022/07/20 14:42:34;;;;;;;8.47;4.40;;;23.70;99.90;;;;;;5097959;28;20226;-68
2022/07/20 14:45:01;;;;;;;5.50;3.87;;;23.70;99.90;;;;;;5097777;28;20291;-69
2022/07/20 14:47:29;;;;;;;8.80;4.50;;;23.50;99.90;;;;;;5103875;28;20246;-71
2022/07/20 14:49:56;;;;;;;9.07;4.17;;;23.50;99.90;;;;;;5094260;28;20290;-72
2022/07/20 14:52:23;;;;;;;5.67;4.00;;;23.40;99.90;;;;;;5110190;28;20297;-71
2022/07/20 14:54:50;;;;;;;7.67;4.33;;;23.40;99.90;;;;;;5114718;27;20293;-70
2022/07/20 14:57:17;;;;;;;8.00;4.57;;;23.40;99.90;;;;;;5114850;28;20653;-70
2022/07/20 14:59:44;;;;;;;7.77;4.30;;;23.50;99.90;;;;;;5114923;28;20301;-71
2022/07/20 15:02:10;;;;;;;6.67;4.40;;;23.60;99.90;;;;;;5114622;28;20210;-70
2022/07/20 15:04:39;;;;;;;6.93;4.20;;;23.70;99.90;;;;;;5114522;28;20326;-74
2022/07/20 15:07:06;;;;;;;7.33;4.07;;;23.90;99.90;;;;;;5113908;28;20259;-70
2022/07/20 15:09:33;;;;;;;6.47;3.97;;;24.00;99.90;;;;;;5114348;27;20623;-69
2022/07/20 15:11:59;;;;;;;15.50;4.47;;;24.10;99.90;;;;;;5114045;27;20210;-69
2022/07/20 15:14:26;;;;;;;7.27;4.37;;;24.30;99.90;;;;;;5113956;28;20232;-70
2022/07/20 15:16:53;;;;;;;9.07;4.40;;;24.40;99.90;;;;;;5114044;28;20318;-71
2022/07/20 15:19:21;;;;;;;8.60;4.10;;;24.60;99.90;;;;;;5114390;28;20243;-72
2022/07/20 15:21:52;;;;;;;9.07;4.22;;;24.70;99.90;;;;;;5115457;28;20205;-70
2022/07/20 15:24:19;;;;;;;4.97;4.00;;;24.80;99.90;;;;;;5113953;28;20293;-72
2022/07/20 15:26:49;;;;;;;8.60;3.90;;;24.80;99.90;;;;;;5114484;28;20195;-70
2022/07/20 15:29:16;;;;;;;5.30;3.60;;;24.80;99.90;;;;;;5113894;28;20238;-70
2022/07/20 15:31:43;;;;;;;6.22;4.00;;;24.90;99.90;;;;;;5114356;28;20200;-70
2022/07/20 15:34:10;;;;;;;7.63;3.45;;;24.90;99.90;;;;;;5113423;28;20213;-70
2022/07/20 15:36:37;;;;;;;6.03;3.67;;;24.90;99.90;;;;;;5113508;28;20234;-71
2022/07/20 15:39:05;;;;;;;5.63;3.53;;;24.90;99.90;;;;;;5103593;28;20842;-70
2022/07/20 15:41:32;;;;;;;9.00;3.67;;;24.90;99.90;;;;;;5097947;28;20286;-70
2022/07/20 15:44:00;;;;;;;7.75;3.60;;;25.00;99.90;;;;;;5105642;28;20612;-70
2022/07/20 15:46:27;;;;;;;6.50;4.07;;;24.90;99.90;;;;;;5110395;28;20206;-71
2022/07/20 15:48:55;;;;;;;10.95;4.05;;;24.90;99.90;;;;;;5092714;28;20253;-70
2022/07/20 15:51:22;;;;;;;4.55;3.40;;;24.90;99.90;;;;;;5093094;28;20656;-71
2022/07/20 15:53:49;;;;;;;5.93;3.88;;;25.00;99.90;;;;;;5092479;28;20717;-70
2022/07/20 15:56:17;;;;;;;6.25;3.70;;;25.00;99.90;;;;;;5092641;28;20313;-69
2022/07/20 15:58:45;;;;;;;7.07;3.30;;;25.00;99.90;;;;;;5103443;28;20346;-71
2022/07/20 16:01:12;;;;;;;4.65;3.20;;;24.90;99.90;;;;;;5092562;28;20201;-70
2022/07/20 16:03:39;;;;;;;9.60;3.40;;;24.90;99.90;;;;;;5092002;28;20294;-70
2022/07/20 16:06:07;;;;;;;7.68;3.30;;;24.90;99.90;;;;;;5092271;28;20275;-71
2022/07/20 16:08:33;;;;;;;4.35;3.28;;;24.90;99.90;;;;;;5092445;28;20610;-69
2022/07/20 16:11:00;;;;;;;7.27;3.70;;;24.80;99.90;;;;;;5092175;28;20212;-69
2022/07/20 16:13:29;;;;;;;7.53;3.38;;;24.80;99.90;;;;;;5092482;28;20241;-70
2022/07/20 16:15:55;;;;;;;4.93;3.55;;;24.80;99.90;;;;;;5093232;28;20255;-71
2022/07/20 16:18:23;;;;;;;4.43;3.27;;;24.80;99.90;;;;;;5092566;28;20684;-71
2022/07/20 16:20:50;;;;;;;5.70;3.35;;;24.80;99.90;;;;;;5108419;28;20296;-74
2022/07/20 16:23:17;;;;;;;3.88;3.00;;;24.80;99.90;;;;;;5112791;27;20300;-69
2022/07/20 16:25:44;;;;;;;5.05;3.22;;;24.80;99.90;;;;;;5112707;28;20289;-69
2022/07/20 16:28:11;;;;;;;7.00;3.07;;;24.80;99.90;;;;;;5112892;28;20208;-71
2022/07/20 16:30:39;;;;;;;5.63;2.70;;;24.80;99.90;;;;;;5113363;28;20639;-70
2022/07/20 16:33:08;;;;;;;6.53;3.20;;;24.80;99.90;;;;;;5094094;28;20217;-71
2022/07/20 16:35:34;;;;;;;5.33;3.50;;;24.80;99.90;;;;;;5098406;28;20208;-70
2022/07/20 16:38:02;;;;;;;6.20;3.90;;;24.80;99.90;;;;;;5112099;28;20265;-70
2022/07/20 16:40:30;;;;;;;5.90;3.10;;;24.80;99.90;;;;;;5093308;28;20203;-70
2022/07/20 16:42:56;;;;;;;4.67;2.70;;;24.70;99.90;;;;;;5090963;28;20752;-71
2022/07/20 16:45:23;;;;;;;4.83;2.90;;;24.70;99.90;;;;;;5092344;28;20249;-67
2022/07/20 16:47:52;;;;;;;7.03;3.30;;;24.60;99.90;;;;;;5090512;28;20204;-66
2022/07/20 16:50:19;;;;;;;6.57;3.50;;;24.50;99.90;;;;;;5098729;28;20203;-66
2022/07/20 16:52:46;;;;;;;5.03;2.90;;;24.50;99.90;;;;;;5094624;28;20292;-66
2022/07/20 16:55:12;;;;;;;5.73;3.00;;;24.30;99.90;;;;;;5093811;28;20209;-66
2022/07/20 16:57:39;;;;;;;4.80;3.10;;;24.20;99.90;;;;;;5091442;28;20229;-67
2022/07/20 17:00:09;;;;;;;4.37;2.50;;;24.10;99.90;;;;;;5112097;28;20743;-66
2022/07/20 17:02:36;;;;;;;6.10;2.83;;;24.00;99.90;;;;;;5102106;28;20722;-66
2022/07/20 17:05:06;;;;;;;5.03;3.07;;;23.90;99.90;;;;;;5092103;28;20296;-65
2022/07/20 17:07:33;;;;;;;4.43;2.93;;;23.80;99.90;;;;;;5100186;28;20286;-70
2022/07/20 17:10:00;;;;;;;5.20;2.93;;;23.70;99.90;;;;;;5106201;28;20233;-66
2022/07/20 17:12:27;;;;;;;5.37;2.83;;;23.60;99.90;;;;;;5091518;28;20257;-66
2022/07/20 17:14:54;;;;;;;6.00;3.10;;;23.60;99.90;;;;;;5091477;28;20292;-66
2022/07/20 17:17:21;;;;;;;4.20;2.73;;;23.50;99.90;;;;;;5095479;28;20325;-66
2022/07/20 17:19:47;;;;;;;7.33;3.17;;;23.50;99.90;;;;;;5114832;28;20240;-66
2022/07/20 17:22:16;;;;;;;8.57;2.80;;;23.40;99.90;;;;;;5113482;28;20297;-68
2022/07/20 17:24:43;;;;;;;6.97;3.30;;;23.30;99.90;;;;;;5095351;28;20213;-67
2022/07/20 17:27:10;;;;;;;7.37;3.10;;;23.20;99.90;;;;;;5095458;28;20325;-68
2022/07/20 17:29:37;;;;;;;4.63;2.73;;;23.20;99.90;;;;;;5103877;28;20202;-68
2022/07/20 17:32:05;;;;;;;3.97;2.63;;;23.10;99.90;;;;;;5115910;28;20196;-68
2022/07/20 17:34:31;;;;;;;4.00;3.07;;;23.00;99.90;;;;;;5115611;28;20278;-65
2022/07/20 17:36:58;;;;;;;3.87;3.00;;;23.00;99.90;;;;;;5115361;28;20321;-68
2022/07/20 17:39:26;;;;;;;4.47;2.60;;;22.90;99.90;;;;;;5110592;28;20305;-64
2022/07/20 17:41:55;;;;;;;4.47;3.00;;;22.80;99.90;;;;;;5102529;28;20312;-65
2022/07/20 17:44:22;;;;;;;8.90;2.90;;;22.80;99.90;;;;;;5100766;28;20627;-65
2022/07/20 17:46:49;;;;;;;5.63;2.70;;;22.70;99.90;;;;;;5095061;28;20212;-67
2022/07/20 17:49:17;;;;;;;6.10;2.83;;;22.70;99.90;;;;;;5094971;28;20211;-66
2022/07/20 17:51:46;;;;;;;4.23;3.13;;;22.60;99.90;;;;;;5094989;28;20282;-65